USCGC Polar Star — NBTM — position and weather

sailwx.info

Track history (hours):
 
Tides and Currents Weather Stations Pressure Air Temp Water Temp Dewpoint Dewpoint Depression Visibility Wind Speed Wind Dir Waves Ship Positions

Oceanographic research ship USCGC Polar Star (USA)

Detailed information on ship capabilities available from University of Delaware's Ocean Information Center and ARCUS's ALIAS (Arctic Logistics Information and Support) project.

Last reported at 2017-Mar-22 18:32 UTC. Time now 2017-Mar-23 18:15 UTC.
Position N 47°35' W 122°21'.

Type: Military. MMSI: 367255000.

Date/timePositionNaut miles runAvg speedWind from/ knotsBaromVisibWave heightAir tempDewpointWater temp
2017-Mar-22 18:32N 47°35' W 122°21'1 1.3
2017-Mar-22 17:33N 47°37' W 122°21'0 0.0
2017-Mar-22 16:33N 47°37' W 122°21'0 0.0
2017-Mar-22 15:33N 47°37' W 122°21'0 0.0
2017-Mar-22 14:33N 47°37' W 122°21'0 0.0
2017-Mar-22 13:33N 47°37' W 122°21'0 0.0
2017-Mar-22 12:32N 47°37' W 122°21'0 0.0
2017-Mar-22 11:33N 47°37' W 122°21'0 0.0
2017-Mar-22 10:30N 47°37' W 122°21'0 0.0
2017-Mar-22 09:32N 47°37' W 122°21'0 0.0
2017-Mar-22 08:33N 47°37' W 122°21'0 0.0
2017-Mar-22 07:33N 47°37' W 122°21'0 0.0
2017-Mar-22 06:32N 47°37' W 122°21'0 0.0
2017-Mar-22 05:32N 47°37' W 122°21'0 0.0
2017-Mar-22 04:32N 47°37' W 122°21'0 0.0
2017-Mar-22 03:33N 47°37' W 122°21'0 0.0
2017-Mar-22 02:31N 47°37' W 122°21'0 0.0
2017-Mar-22 01:33N 47°37' W 122°21'0 0.0
2017-Mar-22 00:33N 47°37' W 122°21'0 0.0
2017-Mar-21 23:30N 47°37' W 122°21'0 0.0
2017-Mar-21 22:33N 47°37' W 122°21'0 0.0
2017-Mar-21 21:32N 47°37' W 122°21'0 0.0
2017-Mar-21 20:33N 47°37' W 122°21'0 0.0
2017-Mar-21 19:33N 47°37' W 122°21'0 0.0
2017-Mar-21 18:33N 47°37' W 122°21'0 0.0
2017-Mar-21 17:33N 47°37' W 122°21'0 0.0
2017-Mar-21 16:32N 47°37' W 122°21'0 0.0
2017-Mar-21 15:32N 47°37' W 122°21'  
2017-Mar-17 17:33N 47°37' W 122°22'1010.1
2017-Mar-17 16:33N 47°46' W 122°27'1212.2
2017-Mar-17 15:33N 47°57' W 122°35'1110.8
2017-Mar-17 14:31N 48°08' W 122°42'8 8.2
2017-Mar-17 13:33N 48°11' W 122°53'5 5.0
2017-Mar-17 12:33N 48°11' W 123°00'5 5.0
2017-Mar-17 11:33N 48°12' W 123°08'6 5.9
2017-Mar-17 10:33N 48°13' W 123°16'6 6.2
2017-Mar-17 09:33N 48°13' W 123°26'6 5.5
2017-Mar-17 08:32N 48°13' W 123°34'5 5.1
2017-Mar-17 07:33N 48°14' W 123°42'4 4.3
2017-Mar-17 06:33N 48°13' W 123°48'4 4.4
2017-Mar-17 05:33N 48°13' W 123°55'5 5.4
2017-Mar-17 04:34N 48°16' W 124°02'5 5.2
2017-Mar-17 03:33N 48°18' W 124°09'5 5.2
2017-Mar-17 02:34N 48°20' W 124°16'2 1.7
2017-Mar-17 01:33N 48°18' W 124°16'4 3.8
2017-Mar-17 00:33N 48°16' W 124°11'3 3.3
2017-Mar-16 23:33N 48°15' W 124°07'2 2.0
2017-Mar-16 22:33N 48°15' W 124°04'1 1.3
2017-Mar-16 21:33N 48°16' W 124°05'4 3.9
2017-Mar-16 20:33N 48°18' W 124°10'4 4.1
2017-Mar-16 19:33N 48°20' W 124°16'4 3.7
2017-Mar-16 18:34N 48°21' W 124°21'4 3.7
2017-Mar-16 17:34N 48°23' W 124°26'4 3.8
2017-Mar-16 16:33N 48°24' W 124°31'4 3.9
2017-Mar-16 15:34N 48°26' W 124°36'5 4.8
2017-Mar-16 14:33N 48°28' W 124°43'1110.5
2017-Mar-16 13:31N 48°28' W 124°59'7 7.4
2017-Mar-16 12:33N 48°22' W 125°05'  
Track history (hours):
 
Tides and Currents Weather Stations Pressure Air Temp Water Temp Dewpoint Dewpoint Depression Visibility Wind Speed Wind Dir Waves Ship Positions

Oceanographic research ship USCGC Polar Star (USA)

Detailed information on ship capabilities available from University of Delaware's Ocean Information Center and ARCUS's ALIAS (Arctic Logistics Information and Support) project.

Last reported at 2017-Mar-22 18:32 UTC. Time now 2017-Mar-23 18:15 UTC.
Position N 47°35' W 122°21'.

Type: Military. MMSI: 367255000.

Date/timePositionNaut miles runAvg speedWind from/ knotsBaromVisibWave heightAir tempDewpointWater temp
2017-Mar-22 18:32N 47°35' W 122°21'1 1.3
2017-Mar-22 17:33N 47°37' W 122°21'0 0.0
2017-Mar-22 16:33N 47°37' W 122°21'0 0.0
2017-Mar-22 15:33N 47°37' W 122°21'0 0.0
2017-Mar-22 14:33N 47°37' W 122°21'0 0.0
2017-Mar-22 13:33N 47°37' W 122°21'0 0.0
2017-Mar-22 12:32N 47°37' W 122°21'0 0.0
2017-Mar-22 11:33N 47°37' W 122°21'0 0.0
2017-Mar-22 10:30N 47°37' W 122°21'0 0.0
2017-Mar-22 09:32N 47°37' W 122°21'0 0.0
2017-Mar-22 08:33N 47°37' W 122°21'0 0.0
2017-Mar-22 07:33N 47°37' W 122°21'0 0.0
2017-Mar-22 06:32N 47°37' W 122°21'0 0.0
2017-Mar-22 05:32N 47°37' W 122°21'0 0.0
2017-Mar-22 04:32N 47°37' W 122°21'0 0.0
2017-Mar-22 03:33N 47°37' W 122°21'0 0.0
2017-Mar-22 02:31N 47°37' W 122°21'0 0.0
2017-Mar-22 01:33N 47°37' W 122°21'0 0.0
2017-Mar-22 00:33N 47°37' W 122°21'0 0.0
2017-Mar-21 23:30N 47°37' W 122°21'0 0.0
2017-Mar-21 22:33N 47°37' W 122°21'0 0.0
2017-Mar-21 21:32N 47°37' W 122°21'0 0.0
2017-Mar-21 20:33N 47°37' W 122°21'0 0.0
2017-Mar-21 19:33N 47°37' W 122°21'0 0.0
2017-Mar-21 18:33N 47°37' W 122°21'0 0.0
2017-Mar-21 17:33N 47°37' W 122°21'0 0.0
2017-Mar-21 16:32N 47°37' W 122°21'0 0.0
2017-Mar-21 15:32N 47°37' W 122°21'  
2017-Mar-17 17:33N 47°37' W 122°22'1010.1
2017-Mar-17 16:33N 47°46' W 122°27'1212.2
2017-Mar-17 15:33N 47°57' W 122°35'1110.8
2017-Mar-17 14:31N 48°08' W 122°42'8 8.2
2017-Mar-17 13:33N 48°11' W 122°53'5 5.0
2017-Mar-17 12:33N 48°11' W 123°00'5 5.0
2017-Mar-17 11:33N 48°12' W 123°08'6 5.9
2017-Mar-17 10:33N 48°13' W 123°16'6 6.2
2017-Mar-17 09:33N 48°13' W 123°26'6 5.5
2017-Mar-17 08:32N 48°13' W 123°34'5 5.1
2017-Mar-17 07:33N 48°14' W 123°42'4 4.3
2017-Mar-17 06:33N 48°13' W 123°48'4 4.4
2017-Mar-17 05:33N 48°13' W 123°55'5 5.4
2017-Mar-17 04:34N 48°16' W 124°02'5 5.2
2017-Mar-17 03:33N 48°18' W 124°09'5 5.2
2017-Mar-17 02:34N 48°20' W 124°16'2 1.7
2017-Mar-17 01:33N 48°18' W 124°16'4 3.8
2017-Mar-17 00:33N 48°16' W 124°11'3 3.3
2017-Mar-16 23:33N 48°15' W 124°07'2 2.0
2017-Mar-16 22:33N 48°15' W 124°04'1 1.3
2017-Mar-16 21:33N 48°16' W 124°05'4 3.9
2017-Mar-16 20:33N 48°18' W 124°10'4 4.1
2017-Mar-16 19:33N 48°20' W 124°16'4 3.7
2017-Mar-16 18:34N 48°21' W 124°21'4 3.7
2017-Mar-16 17:34N 48°23' W 124°26'4 3.8
2017-Mar-16 16:33N 48°24' W 124°31'4 3.9
2017-Mar-16 15:34N 48°26' W 124°36'5 4.8
2017-Mar-16 14:33N 48°28' W 124°43'1110.5
2017-Mar-16 13:31N 48°28' W 124°59'7 7.4
2017-Mar-16 12:33N 48°22' W 125°05'  

Dump ship's entire track history